sensor_id;sensor_type;location;lat;lon;timestamp;P1;durP1;ratioP1;P2;durP2;ratioP2
54307;SDS011;40208;39.778;2.710;2023-11-21T00:00:01;55.70;;;33.05;;
54307;SDS011;40208;39.778;2.710;2023-11-21T00:02:47;53.83;;;32.72;;
54307;SDS011;40208;39.778;2.710;2023-11-21T00:05:32;59.20;;;33.35;;
54307;SDS011;40208;39.778;2.710;2023-11-21T00:08:17;56.78;;;33.85;;
54307;SDS011;40208;39.778;2.710;2023-11-21T00:11:02;52.63;;;31.92;;
54307;SDS011;40208;39.778;2.710;2023-11-21T00:13:49;52.15;;;31.08;;
54307;SDS011;40208;39.778;2.710;2023-11-21T00:16:34;58.28;;;30.67;;
54307;SDS011;40208;39.778;2.710;2023-11-21T00:19:19;51.38;;;29.33;;
54307;SDS011;40208;39.778;2.710;2023-11-21T00:22:04;46.80;;;29.50;;
54307;SDS011;40208;39.778;2.710;2023-11-21T00:24:50;48.72;;;29.33;;
54307;SDS011;40208;39.778;2.710;2023-11-21T00:27:35;50.70;;;29.13;;
54307;SDS011;40208;39.778;2.710;2023-11-21T00:30:20;42.97;;;25.20;;
54307;SDS011;40208;39.778;2.710;2023-11-21T00:33:07;40.67;;;24.98;;
54307;SDS011;40208;39.778;2.710;2023-11-21T00:35:51;35.22;;;23.92;;
54307;SDS011;40208;39.778;2.710;2023-11-21T00:38:36;32.85;;;18.75;;
54307;SDS011;40208;39.778;2.710;2023-11-21T00:41:24;34.35;;;19.15;;
54307;SDS011;40208;39.778;2.710;2023-11-21T00:44:11;25.92;;;15.40;;
54307;SDS011;40208;39.778;2.710;2023-11-21T00:46:56;23.10;;;14.88;;
54307;SDS011;40208;39.778;2.710;2023-11-21T00:49:41;15.43;;;8.88;;
54307;SDS011;40208;39.778;2.710;2023-11-21T00:52:26;18.73;;;10.93;;
54307;SDS011;40208;39.778;2.710;2023-11-21T00:55:11;18.45;;;10.70;;
54307;SDS011;40208;39.778;2.710;2023-11-21T00:57:56;17.88;;;10.02;;
54307;SDS011;40208;39.778;2.710;2023-11-21T01:00:42;14.27;;;7.82;;
54307;SDS011;40208;39.778;2.710;2023-11-21T01:03:28;11.82;;;7.07;;
54307;SDS011;40208;39.778;2.710;2023-11-21T01:06:12;10.73;;;6.38;;
54307;SDS011;40208;39.778;2.710;2023-11-21T01:08:57;10.35;;;5.15;;
54307;SDS011;40208;39.778;2.710;2023-11-21T01:11:42;13.32;;;4.05;;
54307;SDS011;40208;39.778;2.710;2023-11-21T01:14:27;12.05;;;4.88;;
54307;SDS011;40208;39.778;2.710;2023-11-21T01:17:12;9.20;;;4.03;;
54307;SDS011;40208;39.778;2.710;2023-11-21T01:19:57;7.68;;;4.45;;
54307;SDS011;40208;39.778;2.710;2023-11-21T01:22:42;5.20;;;3.45;;
54307;SDS011;40208;39.778;2.710;2023-11-21T01:25:27;9.20;;;4.20;;
54307;SDS011;40208;39.778;2.710;2023-11-21T01:28:12;9.80;;;3.63;;
54307;SDS011;40208;39.778;2.710;2023-11-21T01:30:57;11.23;;;4.10;;
54307;SDS011;40208;39.778;2.710;2023-11-21T01:33:42;7.28;;;4.40;;
54307;SDS011;40208;39.778;2.710;2023-11-21T01:36:33;8.93;;;3.92;;
54307;SDS011;40208;39.778;2.710;2023-11-21T01:39:17;9.40;;;4.80;;
54307;SDS011;40208;39.778;2.710;2023-11-21T01:42:07;11.48;;;4.85;;
54307;SDS011;40208;39.778;2.710;2023-11-21T01:44:52;8.65;;;5.28;;
54307;SDS011;40208;39.778;2.710;2023-11-21T01:47:39;8.32;;;6.10;;
54307;SDS011;40208;39.778;2.710;2023-11-21T01:50:25;10.90;;;5.70;;
54307;SDS011;40208;39.778;2.710;2023-11-21T01:53:11;9.15;;;6.07;;
54307;SDS011;40208;39.778;2.710;2023-11-21T01:55:57;11.30;;;6.60;;
54307;SDS011;40208;39.778;2.710;2023-11-21T01:58:44;9.25;;;6.15;;
54307;SDS011;40208;39.778;2.710;2023-11-21T02:01:31;9.57;;;7.45;;
54307;SDS011;40208;39.778;2.710;2023-11-21T02:04:16;14.18;;;7.05;;
54307;SDS011;40208;39.778;2.710;2023-11-21T02:07:00;11.95;;;8.00;;
54307;SDS011;40208;39.778;2.710;2023-11-21T02:09:45;16.13;;;7.90;;
54307;SDS011;40208;39.778;2.710;2023-11-21T02:12:30;16.02;;;8.25;;
54307;SDS011;40208;39.778;2.710;2023-11-21T02:15:15;10.35;;;6.88;;
54307;SDS011;40208;39.778;2.710;2023-11-21T02:18:04;10.50;;;7.13;;
54307;SDS011;40208;39.778;2.710;2023-11-21T02:20:50;13.77;;;8.07;;
54307;SDS011;40208;39.778;2.710;2023-11-21T02:23:35;12.30;;;7.00;;
54307;SDS011;40208;39.778;2.710;2023-11-21T02:26:20;12.95;;;7.45;;
54307;SDS011;40208;39.778;2.710;2023-11-21T02:29:05;14.60;;;8.70;;
54307;SDS011;40208;39.778;2.710;2023-11-21T02:31:52;10.98;;;8.05;;
54307;SDS011;40208;39.778;2.710;2023-11-21T02:34:38;15.57;;;8.57;;
54307;SDS011;40208;39.778;2.710;2023-11-21T02:37:23;11.13;;;7.80;;
54307;SDS011;40208;39.778;2.710;2023-11-21T02:40:09;12.93;;;8.57;;
54307;SDS011;40208;39.778;2.710;2023-11-21T02:42:56;11.30;;;8.55;;
54307;SDS011;40208;39.778;2.710;2023-11-21T02:45:43;14.20;;;8.55;;
54307;SDS011;40208;39.778;2.710;2023-11-21T02:48:28;11.02;;;8.32;;
54307;SDS011;40208;39.778;2.710;2023-11-21T02:51:12;10.10;;;7.45;;
54307;SDS011;40208;39.778;2.710;2023-11-21T02:53:57;11.73;;;7.32;;
54307;SDS011;40208;39.778;2.710;2023-11-21T02:56:43;12.52;;;7.80;;
54307;SDS011;40208;39.778;2.710;2023-11-21T02:59:28;10.65;;;7.13;;
54307;SDS011;40208;39.778;2.710;2023-11-21T03:02:13;10.98;;;7.40;;
54307;SDS011;40208;39.778;2.710;2023-11-21T03:04:58;13.90;;;7.95;;
54307;SDS011;40208;39.778;2.710;2023-11-21T03:07:42;11.07;;;7.65;;
54307;SDS011;40208;39.778;2.710;2023-11-21T03:10:27;9.88;;;7.00;;
54307;SDS011;40208;39.778;2.710;2023-11-21T03:13:12;11.95;;;7.72;;
54307;SDS011;40208;39.778;2.710;2023-11-21T03:15:57;10.23;;;7.45;;
54307;SDS011;40208;39.778;2.710;2023-11-21T03:18:42;16.10;;;9.20;;
54307;SDS011;40208;39.778;2.710;2023-11-21T03:21:27;10.45;;;7.57;;
54307;SDS011;40208;39.778;2.710;2023-11-21T03:24:13;10.15;;;7.43;;
54307;SDS011;40208;39.778;2.710;2023-11-21T03:26:58;11.30;;;8.48;;
54307;SDS011;40208;39.778;2.710;2023-11-21T03:29:43;12.80;;;8.50;;
54307;SDS011;40208;39.778;2.710;2023-11-21T03:32:28;13.98;;;8.52;;
54307;SDS011;40208;39.778;2.710;2023-11-21T03:35:13;10.95;;;7.70;;
54307;SDS011;40208;39.778;2.710;2023-11-21T03:37:58;12.88;;;7.63;;
54307;SDS011;40208;39.778;2.710;2023-11-21T03:40:43;14.82;;;8.63;;
54307;SDS011;40208;39.778;2.710;2023-11-21T03:43:27;11.05;;;8.07;;
54307;SDS011;40208;39.778;2.710;2023-11-21T03:46:12;15.43;;;7.68;;
54307;SDS011;40208;39.778;2.710;2023-11-21T03:48:57;12.80;;;8.10;;
54307;SDS011;40208;39.778;2.710;2023-11-21T03:51:42;13.15;;;8.07;;
54307;SDS011;40208;39.778;2.710;2023-11-21T03:54:27;13.95;;;8.35;;
54307;SDS011;40208;39.778;2.710;2023-11-21T03:57:12;13.93;;;8.07;;
54307;SDS011;40208;39.778;2.710;2023-11-21T03:59:57;13.18;;;8.35;;
54307;SDS011;40208;39.778;2.710;2023-11-21T04:02:41;12.63;;;8.23;;
54307;SDS011;40208;39.778;2.710;2023-11-21T04:05:26;19.15;;;11.80;;
54307;SDS011;40208;39.778;2.710;2023-11-21T04:08:12;19.17;;;10.65;;
54307;SDS011;40208;39.778;2.710;2023-11-21T04:10:56;16.77;;;10.73;;
54307;SDS011;40208;39.778;2.710;2023-11-21T04:13:42;17.13;;;10.40;;
54307;SDS011;40208;39.778;2.710;2023-11-21T04:16:27;17.35;;;10.80;;
54307;SDS011;40208;39.778;2.710;2023-11-21T04:19:12;18.02;;;10.27;;
54307;SDS011;40208;39.778;2.710;2023-11-21T04:21:59;18.90;;;10.20;;
54307;SDS011;40208;39.778;2.710;2023-11-21T04:24:44;18.05;;;9.75;;
54307;SDS011;40208;39.778;2.710;2023-11-21T04:27:29;16.63;;;9.57;;
54307;SDS011;40208;39.778;2.710;2023-11-21T04:30:14;14.35;;;9.20;;
54307;SDS011;40208;39.778;2.710;2023-11-21T04:32:59;15.40;;;9.65;;
54307;SDS011;40208;39.778;2.710;2023-11-21T04:35:44;13.45;;;8.38;;
54307;SDS011;40208;39.778;2.710;2023-11-21T04:38:29;15.57;;;8.85;;
54307;SDS011;40208;39.778;2.710;2023-11-21T04:41:14;13.23;;;8.57;;
54307;SDS011;40208;39.778;2.710;2023-11-21T04:43:59;13.07;;;8.35;;
54307;SDS011;40208;39.778;2.710;2023-11-21T04:46:46;16.95;;;8.68;;
54307;SDS011;40208;39.778;2.710;2023-11-21T04:49:31;12.35;;;7.43;;
54307;SDS011;40208;39.778;2.710;2023-11-21T04:52:16;16.20;;;8.25;;
54307;SDS011;40208;39.778;2.710;2023-11-21T04:55:01;10.45;;;7.35;;
54307;SDS011;40208;39.778;2.710;2023-11-21T04:57:46;10.65;;;7.00;;
54307;SDS011;40208;39.778;2.710;2023-11-21T05:00:31;10.20;;;6.00;;
54307;SDS011;40208;39.778;2.710;2023-11-21T05:03:16;12.27;;;6.75;;
54307;SDS011;40208;39.778;2.710;2023-11-21T05:06:01;15.13;;;6.50;;
54307;SDS011;40208;39.778;2.710;2023-11-21T05:08:47;8.50;;;5.57;;
54307;SDS011;40208;39.778;2.710;2023-11-21T05:11:32;11.13;;;5.18;;
54307;SDS011;40208;39.778;2.710;2023-11-21T05:14:17;7.90;;;4.05;;
54307;SDS011;40208;39.778;2.710;2023-11-21T05:17:03;6.95;;;3.13;;
54307;SDS011;40208;39.778;2.710;2023-11-21T05:19:48;6.50;;;2.83;;
54307;SDS011;40208;39.778;2.710;2023-11-21T05:22:33;5.65;;;2.25;;
54307;SDS011;40208;39.778;2.710;2023-11-21T05:25:19;4.47;;;2.17;;
54307;SDS011;40208;39.778;2.710;2023-11-21T05:28:04;9.55;;;1.35;;
54307;SDS011;40208;39.778;2.710;2023-11-21T05:30:48;3.53;;;1.27;;
54307;SDS011;40208;39.778;2.710;2023-11-21T05:33:34;5.22;;;1.30;;
54307;SDS011;40208;39.778;2.710;2023-11-21T05:36:19;6.43;;;1.60;;
54307;SDS011;40208;39.778;2.710;2023-11-21T05:39:04;2.15;;;1.20;;
54307;SDS011;40208;39.778;2.710;2023-11-21T05:41:49;3.60;;;0.85;;
54307;SDS011;40208;39.778;2.710;2023-11-21T05:44:34;6.07;;;1.35;;
54307;SDS011;40208;39.778;2.710;2023-11-21T05:47:19;3.03;;;0.80;;
54307;SDS011;40208;39.778;2.710;2023-11-21T05:50:06;2.22;;;0.70;;
54307;SDS011;40208;39.778;2.710;2023-11-21T05:52:59;1.48;;;0.50;;
54307;SDS011;40208;39.778;2.710;2023-11-21T05:55:44;5.13;;;1.10;;
54307;SDS011;40208;39.778;2.710;2023-11-21T05:58:29;5.00;;;0.88;;
54307;SDS011;40208;39.778;2.710;2023-11-21T06:01:14;10.82;;;0.80;;
54307;SDS011;40208;39.778;2.710;2023-11-21T06:03:59;5.63;;;0.82;;
54307;SDS011;40208;39.778;2.710;2023-11-21T06:06:44;4.50;;;0.70;;
54307;SDS011;40208;39.778;2.710;2023-11-21T06:09:28;2.67;;;0.55;;
54307;SDS011;40208;39.778;2.710;2023-11-21T06:12:13;4.18;;;0.68;;
54307;SDS011;40208;39.778;2.710;2023-11-21T06:15:00;5.72;;;0.80;;
54307;SDS011;40208;39.778;2.710;2023-11-21T06:17:46;3.95;;;0.75;;
54307;SDS011;40208;39.778;2.710;2023-11-21T06:20:33;13.55;;;1.60;;
54307;SDS011;40208;39.778;2.710;2023-11-21T06:23:21;13.10;;;0.90;;
54307;SDS011;40208;39.778;2.710;2023-11-21T06:26:06;3.92;;;0.45;;
54307;SDS011;40208;39.778;2.710;2023-11-21T06:28:51;7.25;;;1.13;;
54307;SDS011;40208;39.778;2.710;2023-11-21T06:31:37;5.20;;;1.63;;
54307;SDS011;40208;39.778;2.710;2023-11-21T06:34:22;6.63;;;1.00;;
54307;SDS011;40208;39.778;2.710;2023-11-21T06:37:07;8.30;;;1.63;;
54307;SDS011;40208;39.778;2.710;2023-11-21T06:39:52;7.57;;;1.10;;
54307;SDS011;40208;39.778;2.710;2023-11-21T06:42:37;8.13;;;1.25;;
54307;SDS011;40208;39.778;2.710;2023-11-21T06:45:22;9.13;;;1.45;;
54307;SDS011;40208;39.778;2.710;2023-11-21T06:48:07;9.68;;;1.52;;
54307;SDS011;40208;39.778;2.710;2023-11-21T06:50:52;17.98;;;1.42;;
54307;SDS011;40208;39.778;2.710;2023-11-21T06:53:37;7.13;;;1.38;;
54307;SDS011;40208;39.778;2.710;2023-11-21T06:56:22;7.65;;;1.65;;
54307;SDS011;40208;39.778;2.710;2023-11-21T06:59:08;5.20;;;1.02;;
54307;SDS011;40208;39.778;2.710;2023-11-21T07:01:53;9.63;;;1.33;;
54307;SDS011;40208;39.778;2.710;2023-11-21T07:04:38;9.75;;;1.27;;
54307;SDS011;40208;39.778;2.710;2023-11-21T07:07:23;11.18;;;1.98;;
54307;SDS011;40208;39.778;2.710;2023-11-21T07:10:08;11.88;;;1.58;;
54307;SDS011;40208;39.778;2.710;2023-11-21T07:12:52;10.45;;;1.58;;
54307;SDS011;40208;39.778;2.710;2023-11-21T07:15:38;10.00;;;1.85;;
54307;SDS011;40208;39.778;2.710;2023-11-21T07:18:22;16.15;;;1.55;;
54307;SDS011;40208;39.778;2.710;2023-11-21T07:21:07;8.30;;;1.10;;
54307;SDS011;40208;39.778;2.710;2023-11-21T07:23:53;8.10;;;1.33;;
54307;SDS011;40208;39.778;2.710;2023-11-21T07:26:38;13.85;;;1.92;;
54307;SDS011;40208;39.778;2.710;2023-11-21T07:29:23;10.82;;;1.55;;
54307;SDS011;40208;39.778;2.710;2023-11-21T07:32:14;20.27;;;1.83;;
54307;SDS011;40208;39.778;2.710;2023-11-21T07:34:59;9.55;;;1.88;;
54307;SDS011;40208;39.778;2.710;2023-11-21T07:37:45;10.60;;;2.00;;
54307;SDS011;40208;39.778;2.710;2023-11-21T07:40:33;13.30;;;2.10;;
54307;SDS011;40208;39.778;2.710;2023-11-21T07:43:17;12.35;;;2.25;;
54307;SDS011;40208;39.778;2.710;2023-11-21T07:46:04;21.33;;;3.17;;
54307;SDS011;40208;39.778;2.710;2023-11-21T07:48:49;10.23;;;2.45;;
54307;SDS011;40208;39.778;2.710;2023-11-21T07:51:34;18.98;;;2.42;;
54307;SDS011;40208;39.778;2.710;2023-11-21T07:54:19;13.50;;;3.22;;
54307;SDS011;40208;39.778;2.710;2023-11-21T07:57:05;11.20;;;1.95;;
54307;SDS011;40208;39.778;2.710;2023-11-21T07:59:50;9.68;;;2.05;;
54307;SDS011;40208;39.778;2.710;2023-11-21T08:02:40;10.48;;;2.05;;
54307;SDS011;40208;39.778;2.710;2023-11-21T08:05:30;13.15;;;2.53;;
54307;SDS011;40208;39.778;2.710;2023-11-21T08:08:15;12.77;;;2.42;;
54307;SDS011;40208;39.778;2.710;2023-11-21T08:11:02;12.88;;;2.70;;
54307;SDS011;40208;39.778;2.710;2023-11-21T08:13:48;17.80;;;2.05;;
54307;SDS011;40208;39.778;2.710;2023-11-21T08:16:33;10.57;;;2.78;;
54307;SDS011;40208;39.778;2.710;2023-11-21T08:19:18;18.50;;;3.10;;
54307;SDS011;40208;39.778;2.710;2023-11-21T08:22:03;18.73;;;2.65;;
54307;SDS011;40208;39.778;2.710;2023-11-21T08:24:48;13.52;;;2.40;;
54307;SDS011;40208;39.778;2.710;2023-11-21T08:27:34;13.88;;;1.95;;
54307;SDS011;40208;39.778;2.710;2023-11-21T08:30:19;9.85;;;2.13;;
54307;SDS011;40208;39.778;2.710;2023-11-21T08:33:07;11.98;;;2.58;;
54307;SDS011;40208;39.778;2.710;2023-11-21T08:35:52;32.53;;;5.60;;
54307;SDS011;40208;39.778;2.710;2023-11-21T08:38:37;26.13;;;5.10;;
54307;SDS011;40208;39.778;2.710;2023-11-21T08:41:22;28.75;;;4.75;;
54307;SDS011;40208;39.778;2.710;2023-11-21T08:44:07;23.75;;;5.25;;
54307;SDS011;40208;39.778;2.710;2023-11-21T08:46:52;23.92;;;6.10;;
54307;SDS011;40208;39.778;2.710;2023-11-21T08:49:37;16.45;;;5.22;;
54307;SDS011;40208;39.778;2.710;2023-11-21T08:52:22;19.08;;;5.00;;
54307;SDS011;40208;39.778;2.710;2023-11-21T08:55:08;26.58;;;5.60;;
54307;SDS011;40208;39.778;2.710;2023-11-21T08:57:53;19.65;;;4.32;;
54307;SDS011;40208;39.778;2.710;2023-11-21T09:00:39;17.58;;;4.13;;
54307;SDS011;40208;39.778;2.710;2023-11-21T09:03:25;22.33;;;4.55;;
54307;SDS011;40208;39.778;2.710;2023-11-21T09:06:09;27.58;;;5.05;;
54307;SDS011;40208;39.778;2.710;2023-11-21T09:08:56;46.53;;;6.82;;
54307;SDS011;40208;39.778;2.710;2023-11-21T09:11:41;30.52;;;6.95;;
54307;SDS011;40208;39.778;2.710;2023-11-21T09:14:25;187.60;;;36.25;;
54307;SDS011;40208;39.778;2.710;2023-11-21T09:17:10;115.63;;;20.73;;
54307;SDS011;40208;39.778;2.710;2023-11-21T09:19:55;72.20;;;13.75;;
54307;SDS011;40208;39.778;2.710;2023-11-21T09:22:41;76.55;;;13.10;;
54307;SDS011;40208;39.778;2.710;2023-11-21T09:25:26;52.28;;;9.15;;
54307;SDS011;40208;39.778;2.710;2023-11-21T09:28:13;27.38;;;5.38;;
54307;SDS011;40208;39.778;2.710;2023-11-21T09:30:58;66.93;;;10.95;;
54307;SDS011;40208;39.778;2.710;2023-11-21T09:33:43;16.90;;;4.38;;
54307;SDS011;40208;39.778;2.710;2023-11-21T09:36:28;41.83;;;8.25;;
54307;SDS011;40208;39.778;2.710;2023-11-21T09:39:15;44.88;;;6.65;;
54307;SDS011;40208;39.778;2.710;2023-11-21T09:42:04;48.92;;;10.43;;
54307;SDS011;40208;39.778;2.710;2023-11-21T09:45:03;42.40;;;10.45;;
54307;SDS011;40208;39.778;2.710;2023-11-21T09:47:57;47.38;;;7.82;;
54307;SDS011;40208;39.778;2.710;2023-11-21T09:50:42;38.22;;;9.05;;
54307;SDS011;40208;39.778;2.710;2023-11-21T09:53:27;47.38;;;6.35;;
54307;SDS011;40208;39.778;2.710;2023-11-21T09:56:17;32.85;;;7.05;;
54307;SDS011;40208;39.778;2.710;2023-11-21T09:59:08;25.17;;;4.88;;
54307;SDS011;40208;39.778;2.710;2023-11-21T10:01:57;26.42;;;4.80;;
54307;SDS011;40208;39.778;2.710;2023-11-21T10:04:46;28.08;;;4.68;;
54307;SDS011;40208;39.778;2.710;2023-11-21T10:07:31;19.40;;;3.97;;
54307;SDS011;40208;39.778;2.710;2023-11-21T10:10:19;13.88;;;3.28;;
54307;SDS011;40208;39.778;2.710;2023-11-21T10:13:06;21.00;;;3.40;;
54307;SDS011;40208;39.778;2.710;2023-11-21T10:15:54;26.88;;;4.72;;
54307;SDS011;40208;39.778;2.710;2023-11-21T10:18:40;30.58;;;4.75;;
54307;SDS011;40208;39.778;2.710;2023-11-21T10:21:25;35.22;;;5.95;;
54307;SDS011;40208;39.778;2.710;2023-11-21T10:24:09;46.63;;;9.65;;
54307;SDS011;40208;39.778;2.710;2023-11-21T10:26:56;28.35;;;5.50;;
54307;SDS011;40208;39.778;2.710;2023-11-21T10:29:41;26.42;;;4.90;;
54307;SDS011;40208;39.778;2.710;2023-11-21T10:32:29;24.08;;;3.85;;
54307;SDS011;40208;39.778;2.710;2023-11-21T10:35:17;29.75;;;7.45;;
54307;SDS011;40208;39.778;2.710;2023-11-21T10:38:02;45.28;;;12.38;;
54307;SDS011;40208;39.778;2.710;2023-11-21T10:40:47;39.10;;;11.82;;
54307;SDS011;40208;39.778;2.710;2023-11-21T10:43:33;35.22;;;9.95;;
54307;SDS011;40208;39.778;2.710;2023-11-21T10:46:18;23.95;;;7.47;;
54307;SDS011;40208;39.778;2.710;2023-11-21T10:49:04;25.85;;;5.93;;
54307;SDS011;40208;39.778;2.710;2023-11-21T10:51:49;15.35;;;4.60;;
54307;SDS011;40208;39.778;2.710;2023-11-21T10:54:35;20.83;;;3.40;;
54307;SDS011;40208;39.778;2.710;2023-11-21T10:57:22;25.05;;;4.18;;
54307;SDS011;40208;39.778;2.710;2023-11-21T11:00:08;14.45;;;3.50;;
54307;SDS011;40208;39.778;2.710;2023-11-21T11:02:57;22.20;;;4.77;;
54307;SDS011;40208;39.778;2.710;2023-11-21T11:05:43;14.00;;;3.35;;
54307;SDS011;40208;39.778;2.710;2023-11-21T11:08:35;19.38;;;3.38;;
54307;SDS011;40208;39.778;2.710;2023-11-21T11:11:24;15.00;;;3.05;;
54307;SDS011;40208;39.778;2.710;2023-11-21T11:14:10;17.90;;;4.10;;
54307;SDS011;40208;39.778;2.710;2023-11-21T11:16:57;22.23;;;3.83;;
54307;SDS011;40208;39.778;2.710;2023-11-21T11:19:43;12.55;;;3.15;;
54307;SDS011;40208;39.778;2.710;2023-11-21T11:22:30;28.40;;;5.13;;
54307;SDS011;40208;39.778;2.710;2023-11-21T11:28:29;22.25;;;3.95;;
54307;SDS011;40208;39.778;2.710;2023-11-21T11:34:56;13.85;;;2.53;;
54307;SDS011;40208;39.778;2.710;2023-11-21T11:37:48;17.10;;;3.47;;
54307;SDS011;40208;39.778;2.710;2023-11-21T11:40:39;29.45;;;7.30;;
54307;SDS011;40208;39.778;2.710;2023-11-21T11:43:37;31.13;;;10.48;;
54307;SDS011;40208;39.778;2.710;2023-11-21T11:46:43;53.30;;;19.67;;
54307;SDS011;40208;39.778;2.710;2023-11-21T11:49:32;56.97;;;23.65;;
54307;SDS011;40208;39.778;2.710;2023-11-21T11:55:22;51.60;;;18.02;;
54307;SDS011;40208;39.778;2.710;2023-11-21T11:58:07;54.78;;;14.73;;
54307;SDS011;40208;39.778;2.710;2023-11-21T12:00:52;66.03;;;15.20;;
54307;SDS011;40208;39.778;2.710;2023-11-21T12:03:39;49.05;;;12.80;;
54307;SDS011;40208;39.778;2.710;2023-11-21T12:06:35;27.58;;;9.68;;
54307;SDS011;40208;39.778;2.710;2023-11-21T12:09:22;28.83;;;9.48;;
54307;SDS011;40208;39.778;2.710;2023-11-21T12:12:08;26.25;;;8.15;;
54307;SDS011;40208;39.778;2.710;2023-11-21T12:14:52;18.58;;;4.43;;
54307;SDS011;40208;39.778;2.710;2023-11-21T12:17:38;14.32;;;2.88;;
54307;SDS011;40208;39.778;2.710;2023-11-21T12:20:24;14.32;;;3.40;;
54307;SDS011;40208;39.778;2.710;2023-11-21T12:23:11;11.88;;;2.63;;
54307;SDS011;40208;39.778;2.710;2023-11-21T12:25:59;11.32;;;2.60;;
54307;SDS011;40208;39.778;2.710;2023-11-21T12:28:43;14.05;;;2.45;;
54307;SDS011;40208;39.778;2.710;2023-11-21T12:31:36;14.10;;;2.92;;
54307;SDS011;40208;39.778;2.710;2023-11-21T12:34:21;21.80;;;5.93;;
54307;SDS011;40208;39.778;2.710;2023-11-21T12:37:05;9.95;;;3.80;;
54307;SDS011;40208;39.778;2.710;2023-11-21T12:39:50;17.33;;;5.07;;
54307;SDS011;40208;39.778;2.710;2023-11-21T12:42:35;15.82;;;4.00;;
54307;SDS011;40208;39.778;2.710;2023-11-21T12:48:15;12.20;;;3.13;;
54307;SDS011;40208;39.778;2.710;2023-11-21T12:51:06;12.75;;;4.03;;
54307;SDS011;40208;39.778;2.710;2023-11-21T12:53:51;23.98;;;11.32;;
54307;SDS011;40208;39.778;2.710;2023-11-21T12:56:40;21.67;;;10.65;;
54307;SDS011;40208;39.778;2.710;2023-11-21T12:59:24;19.52;;;7.65;;
54307;SDS011;40208;39.778;2.710;2023-11-21T13:02:09;22.20;;;6.53;;
54307;SDS011;40208;39.778;2.710;2023-11-21T13:04:58;16.30;;;5.40;;
54307;SDS011;40208;39.778;2.710;2023-11-21T13:07:43;11.52;;;3.40;;
54307;SDS011;40208;39.778;2.710;2023-11-21T13:10:31;14.25;;;3.42;;
54307;SDS011;40208;39.778;2.710;2023-11-21T13:13:16;9.38;;;2.28;;
54307;SDS011;40208;39.778;2.710;2023-11-21T13:16:02;10.70;;;2.08;;
54307;SDS011;40208;39.778;2.710;2023-11-21T13:18:50;16.80;;;2.55;;
54307;SDS011;40208;39.778;2.710;2023-11-21T13:21:34;7.75;;;1.65;;
54307;SDS011;40208;39.778;2.710;2023-11-21T13:24:19;5.03;;;1.40;;
54307;SDS011;40208;39.778;2.710;2023-11-21T13:27:06;12.32;;;1.90;;
54307;SDS011;40208;39.778;2.710;2023-11-21T13:29:51;8.13;;;1.60;;
54307;SDS011;40208;39.778;2.710;2023-11-21T13:32:36;6.55;;;2.03;;
54307;SDS011;40208;39.778;2.710;2023-11-21T13:35:21;10.07;;;2.13;;
54307;SDS011;40208;39.778;2.710;2023-11-21T13:38:15;14.63;;;2.45;;
54307;SDS011;40208;39.778;2.710;2023-11-21T13:41:16;13.27;;;2.28;;
54307;SDS011;40208;39.778;2.710;2023-11-21T13:44:02;10.98;;;2.72;;
54307;SDS011;40208;39.778;2.710;2023-11-21T13:47:05;6.07;;;2.13;;
54307;SDS011;40208;39.778;2.710;2023-11-21T13:49:50;16.33;;;2.00;;
54307;SDS011;40208;39.778;2.710;2023-11-21T13:52:35;16.63;;;2.63;;
54307;SDS011;40208;39.778;2.710;2023-11-21T13:55:21;6.35;;;1.65;;
54307;SDS011;40208;39.778;2.710;2023-11-21T13:58:09;5.57;;;1.75;;
54307;SDS011;40208;39.778;2.710;2023-11-21T14:00:58;8.57;;;1.85;;
54307;SDS011;40208;39.778;2.710;2023-11-21T14:03:43;19.23;;;2.17;;
54307;SDS011;40208;39.778;2.710;2023-11-21T14:06:36;17.02;;;2.45;;
54307;SDS011;40208;39.778;2.710;2023-11-21T14:09:32;13.30;;;2.50;;
54307;SDS011;40208;39.778;2.710;2023-11-21T14:12:20;10.65;;;2.20;;
54307;SDS011;40208;39.778;2.710;2023-11-21T14:15:06;11.00;;;2.30;;
54307;SDS011;40208;39.778;2.710;2023-11-21T14:17:53;12.07;;;2.70;;
54307;SDS011;40208;39.778;2.710;2023-11-21T14:20:39;7.95;;;2.03;;
54307;SDS011;40208;39.778;2.710;2023-11-21T14:23:25;16.52;;;2.20;;
54307;SDS011;40208;39.778;2.710;2023-11-21T14:26:11;10.35;;;2.42;;
54307;SDS011;40208;39.778;2.710;2023-11-21T14:29:01;8.85;;;2.40;;
54307;SDS011;40208;39.778;2.710;2023-11-21T14:31:47;10.32;;;1.88;;
54307;SDS011;40208;39.778;2.710;2023-11-21T14:34:33;8.40;;;2.15;;
54307;SDS011;40208;39.778;2.710;2023-11-21T14:37:18;9.38;;;1.70;;
54307;SDS011;40208;39.778;2.710;2023-11-21T14:40:04;16.73;;;1.98;;
54307;SDS011;40208;39.778;2.710;2023-11-21T14:42:51;8.02;;;1.88;;
54307;SDS011;40208;39.778;2.710;2023-11-21T14:45:38;10.95;;;2.63;;
54307;SDS011;40208;39.778;2.710;2023-11-21T14:48:23;9.30;;;2.03;;
54307;SDS011;40208;39.778;2.710;2023-11-21T14:51:28;7.38;;;1.95;;
54307;SDS011;40208;39.778;2.710;2023-11-21T14:54:16;7.40;;;1.73;;
54307;SDS011;40208;39.778;2.710;2023-11-21T14:57:10;10.30;;;1.95;;
54307;SDS011;40208;39.778;2.710;2023-11-21T14:59:57;7.90;;;1.95;;
54307;SDS011;40208;39.778;2.710;2023-11-21T15:02:42;9.95;;;2.08;;
54307;SDS011;40208;39.778;2.710;2023-11-21T15:05:34;8.60;;;2.25;;
54307;SDS011;40208;39.778;2.710;2023-11-21T15:08:19;6.78;;;2.28;;
54307;SDS011;40208;39.778;2.710;2023-11-21T15:11:11;6.05;;;1.90;;
54307;SDS011;40208;39.778;2.710;2023-11-21T15:16:54;9.63;;;2.10;;
54307;SDS011;40208;39.778;2.710;2023-11-21T15:19:44;8.25;;;2.22;;
54307;SDS011;40208;39.778;2.710;2023-11-21T15:22:29;7.65;;;1.92;;
54307;SDS011;40208;39.778;2.710;2023-11-21T15:25:14;23.55;;;4.45;;
54307;SDS011;40208;39.778;2.710;2023-11-21T15:28:01;17.00;;;5.13;;
54307;SDS011;40208;39.778;2.710;2023-11-21T15:30:50;16.50;;;4.53;;
54307;SDS011;40208;39.778;2.710;2023-11-21T15:33:37;16.92;;;4.40;;
54307;SDS011;40208;39.778;2.710;2023-11-21T15:36:26;11.50;;;3.78;;
54307;SDS011;40208;39.778;2.710;2023-11-21T15:39:39;20.00;;;5.03;;
54307;SDS011;40208;39.778;2.710;2023-11-21T15:42:23;15.55;;;5.13;;
54307;SDS011;40208;39.778;2.710;2023-11-21T15:45:09;28.83;;;7.90;;
54307;SDS011;40208;39.778;2.710;2023-11-21T15:47:54;23.98;;;6.85;;
54307;SDS011;40208;39.778;2.710;2023-11-21T15:50:41;16.73;;;5.57;;
54307;SDS011;40208;39.778;2.710;2023-11-21T15:53:27;231.20;;;43.33;;
54307;SDS011;40208;39.778;2.710;2023-11-21T15:56:12;85.10;;;17.25;;
54307;SDS011;40208;39.778;2.710;2023-11-21T15:58:57;70.35;;;12.88;;
54307;SDS011;40208;39.778;2.710;2023-11-21T16:01:43;55.40;;;8.63;;
54307;SDS011;40208;39.778;2.710;2023-11-21T16:04:31;51.40;;;8.85;;
54307;SDS011;40208;39.778;2.710;2023-11-21T16:07:15;16.55;;;3.75;;
54307;SDS011;40208;39.778;2.710;2023-11-21T16:10:02;8.57;;;3.13;;
54307;SDS011;40208;39.778;2.710;2023-11-21T16:12:49;11.60;;;3.08;;
54307;SDS011;40208;39.778;2.710;2023-11-21T16:15:33;12.82;;;2.35;;
54307;SDS011;40208;39.778;2.710;2023-11-21T16:18:18;9.70;;;2.20;;
54307;SDS011;40208;39.778;2.710;2023-11-21T16:21:03;7.10;;;1.77;;
54307;SDS011;40208;39.778;2.710;2023-11-21T16:23:48;7.40;;;1.80;;
54307;SDS011;40208;39.778;2.710;2023-11-21T16:26:33;283.48;;;35.47;;
54307;SDS011;40208;39.778;2.710;2023-11-21T16:29:20;46.60;;;7.35;;
54307;SDS011;40208;39.778;2.710;2023-11-21T16:32:05;76.45;;;17.70;;
54307;SDS011;40208;39.778;2.710;2023-11-21T16:34:50;57.80;;;18.65;;
54307;SDS011;40208;39.778;2.710;2023-11-21T16:37:35;68.18;;;29.05;;
54307;SDS011;40208;39.778;2.710;2023-11-21T16:40:29;38.38;;;18.23;;
54307;SDS011;40208;39.778;2.710;2023-11-21T16:43:14;35.50;;;16.42;;